Flight Track Log - Related Links

Times and Time Zones

All times are in EDT time to prevent confusion due to time zone crossing. See the SWA199 flight status page for this flight to view local times or setup timezone preferences in your user account.

Time Position Orientation Groundspeed Altitude Reporting Facility
EDT Latitude Longitude Course Direction KTS MPH feet Rate Location/Type
Mon 05:07:24 PM 42.3667 -70.9833 75° East 135 155 900  Level Boston TRACON
Mon 05:08:42 PM 42.3833 -70.9000 90° East 202 232 3,400 2,652 Climbing Boston TRACON
Mon 05:09:42 PM 42.3833 -70.8167 110° East 237 273 7,000 3,302 Climbing Boston TRACON
Mon 05:10:51 PM 42.3583 -70.7233 219° Southwest 263 303 10,500 2,222 Climbing Boston Center
Mon 05:12:51 PM 42.2228 -70.8728 258° West 246 283 14,000 1,167 Climbing Boston Center
Mon 05:13:51 PM 42.2056 -70.9856 258° West 319 367 14,000 1,700 Level Boston Center
Mon 05:14:51 PM 42.1822 -71.1289 260° West 350 403 17,400 2,650 Climbing Boston Center
Mon 05:15:51 PM 42.1650 -71.2553 258° West 366 421 19,300 2,575 Climbing Boston Center
Mon 05:18:51 PM 42.0958 -71.6986 257° West 396 456 27,700 2,575 Climbing Boston Center
Mon 05:19:51 PM 42.0736 -71.8303 257° West 401 461 29,600 2,400 Climbing Boston Center
Mon 05:20:51 PM 42.0472 -71.9789 244° Southwest 406 467 32,500 2,200 Climbing Boston Center
Mon 05:21:51 PM 41.9978 -72.1133 237° Southwest 406 467 34,000 750 Climbing Boston Center
Mon 05:22:51 PM 41.9375 -72.2364 237° Southwest 406 467 34,000  Level Boston Center
Mon 05:23:51 PM 41.8753 -72.3647 237° Southwest 406 467 34,000  Level Boston Center
Mon 05:24:51 PM 41.8128 -72.4931 238° Southwest 411 473 34,000  Level Boston Center
Mon 05:25:51 PM 41.7522 -72.6211 236° Southwest 416 479 34,000  Level Boston Center
Mon 05:26:51 PM 41.6872 -72.7514 237° Southwest 416 479 34,000  Level Boston Center
Mon 05:27:51 PM 41.6264 -72.8761 238° Southwest 416 479 34,000  Level Boston Center
Mon 05:28:51 PM 41.5633 -73.0089 237° Southwest 416 479 34,000  Level Boston Center
Mon 05:29:51 PM 41.5022 -73.1358 237° Southwest 416 479 34,000  Level Boston Center
Mon 05:30:51 PM 41.4386 -73.2653 237° Southwest 416 479 34,000  Level Boston Center
Mon 05:31:51 PM 41.3772 -73.3917 235° Southwest 411 473 34,000  Level Boston Center
Mon 05:34:12 PM 41.2214 -73.6842 231° Southwest 422 486 34,000  Level New York Center
Mon 05:35:10 PM 41.1478 -73.8047 232° Southwest 422 486 34,000  Level New York Center
Mon 05:36:10 PM 41.0778 -73.9256 231° Southwest 427 491 34,000  Level New York Center
Mon 05:37:12 PM 41.0058 -74.0431 232° Southwest 427 491 34,000 -443 Level New York Center
Mon 05:38:12 PM 40.9336 -74.1658 232° Southwest 427 491 33,100 -1,729 Descending New York Center
Mon 05:39:10 PM 40.8547 -74.2992 232° Southwest 432 497 30,600 -2,593 Descending New York Center
Mon 05:40:10 PM 40.7800 -74.4242 231° Southwest 432 497 28,000 -1,182 Descending New York Center
Mon 05:41:22 PM 40.7056 -74.5433 231° Southwest 432 497 28,000 -496 Level New York Center
Mon 05:42:23 PM 40.6153 -74.6886 221° Southwest 432 497 26,900 -1,525 Descending New York Center
Mon 05:43:24 PM 40.5244 -74.7928 206° Southwest 421 484 24,900 -2,319 Descending New York Center
Mon 05:44:22 PM 40.4178 -74.8600 227° Southwest 426 490 22,300 -2,441 Descending New York Center
Mon 05:45:22 PM 40.3389 -74.9697 236° Southwest 397 457 20,100 -1,131 Descending New York Center
Mon 05:46:24 PM 40.2850 -75.0753 236° Southwest 397 457 20,000 -50 Descending New York Center
Mon 05:47:22 PM 40.2200 -75.2017 237° Southwest 391 450 20,000  Level New York Center
Mon 05:48:35 PM 40.1633 -75.3178 233° Southwest 386 444 20,000  Level New York Center
Mon 05:49:35 PM 40.0875 -75.4511 231° Southwest 386 444 20,000  Level New York Center
Mon 05:50:35 PM 40.0206 -75.5606 232° Southwest 396 456 20,000 -353 Level New York Center
Mon 05:51:34 PM 39.9531 -75.6750 231° Southwest 396 456 19,300 -950 Descending New York Center
Mon 05:52:35 PM 39.8928 -75.7708 232° Southwest 397 457 18,100 -1,990 Descending New York Center
Mon 05:54:56 PM 39.7333 -76.0333 232° Southwest 353 406 12,600 -1,812 Descending Potomac TRACON
Mon 05:55:57 PM 39.6833 -76.1167 247° West 305 351 12,000 -744 Descending Potomac TRACON
Mon 05:56:57 PM 39.6500 -76.2167 243° Southwest 282 325 11,100 -1,091 Descending Potomac TRACON
Mon 05:57:58 PM 39.6167 -76.3000 247° West 280 322 9,800 -1,417 Descending Potomac TRACON
Mon 05:59:04 PM 39.5833 -76.4000 237° Southwest 276 318 8,100 -1,461 Descending Potomac TRACON
Mon 05:59:53 PM 39.5500 -76.4667 258° West 270 311 7,000 -1,357 Descending Potomac TRACON
Mon 06:00:59 PM 39.5333 -76.5667 226° Southwest 260 299 5,500 -1,417 Descending Potomac TRACON
Mon 06:02:00 PM 39.4833 -76.6333 218° Southwest 243 280 4,000 -942 Descending Potomac TRACON
Mon 06:03:00 PM 39.4333 -76.6833 201° Southwest 248 285 3,600 -843 Descending Potomac TRACON
Mon 06:04:01 PM 39.3667 -76.7167 201° Southwest 241 277 2,300 -1,279 Descending Potomac TRACON

Login

Don't have an account? Register now (free) for customized features, flight alerts, and more!